Time;durP1;ratioP1;P1;durP2;ratioP2;P2;SDS_P1;SDS_P2;PMS_P1;PMS_P2;Temp;Humidity;BMP_temperature;BMP_pressure;BME280_temperature;BME280_humidity;BME280_pressure;Samples;Min_cycle;Max_cycle;Signal;HPM_P1;HPM_P2
2022/09/07 00:00:05;;;;;;;13.30;8.07;;;19.10;99.90;;;;;;5047857;28;20060;-71
2022/09/07 00:02:32;;;;;;;14.85;7.93;;;19.20;99.90;;;;;;5046002;28;20100;-71
2022/09/07 00:04:59;;;;;;;19.38;8.43;;;19.10;99.90;;;;;;5044813;28;20045;-72
2022/09/07 00:07:24;;;;;;;13.88;8.77;;;18.90;99.90;;;;;;5045393;28;20048;-72
2022/09/07 00:09:50;;;;;;;16.20;8.85;;;18.80;99.90;;;;;;5042879;28;20041;-72
2022/09/07 00:12:16;;;;;;;13.40;8.35;;;18.80;99.90;;;;;;5041846;28;20049;-70
2022/09/07 00:14:41;;;;;;;11.43;8.13;;;18.80;99.90;;;;;;5046291;28;20052;-71
2022/09/07 00:17:07;;;;;;;20.05;8.52;;;18.80;99.90;;;;;;5042349;28;20396;-69
2022/09/07 00:19:33;;;;;;;12.55;8.57;;;18.70;99.90;;;;;;5044615;28;20052;-69
2022/09/07 00:21:58;;;;;;;12.60;8.48;;;18.70;99.90;;;;;;5045275;28;20049;-70
2022/09/07 00:24:24;;;;;;;11.55;7.90;;;18.70;99.90;;;;;;5047426;28;20484;-71
2022/09/07 00:26:53;;;;;;;12.02;8.82;;;18.70;99.90;;;;;;5047222;28;20071;-70
2022/09/07 00:29:18;;;;;;;11.25;8.63;;;18.50;99.90;;;;;;5046390;28;20033;-71
2022/09/07 00:31:44;;;;;;;10.60;7.93;;;18.50;99.90;;;;;;5048075;28;20080;-70
2022/09/07 00:34:10;;;;;;;17.52;8.25;;;18.50;99.90;;;;;;5049203;28;20055;-71
2022/09/07 00:36:35;;;;;;;14.48;8.13;;;18.50;99.90;;;;;;5050488;28;20156;-70
2022/09/07 00:39:01;;;;;;;15.50;8.50;;;18.50;99.90;;;;;;5051449;28;20072;-69
2022/09/07 00:41:27;;;;;;;10.18;8.95;;;18.50;99.90;;;;;;5049387;28;20041;-70
2022/09/07 00:43:58;;;;;;;10.43;8.30;;;18.60;99.90;;;;;;5045995;28;20037;-70
2022/09/07 00:46:30;;;;;;;16.75;8.73;;;18.50;99.90;;;;;;5047326;28;20084;-69
2022/09/07 00:49:07;;;;;;;11.60;8.95;;;18.50;99.90;;;;;;5050645;28;20075;-70
2022/09/07 00:51:47;;;;;;;15.02;9.02;;;18.50;99.90;;;;;;5048137;28;20519;-70
2022/09/07 00:54:17;;;;;;;14.88;9.10;;;18.60;99.90;;;;;;5051785;28;20045;-71
2022/09/07 00:56:45;;;;;;;15.60;10.15;;;18.50;99.90;;;;;;5050837;28;20396;-71
2022/09/07 00:59:13;;;;;;;19.98;8.68;;;18.30;99.90;;;;;;5051316;28;20623;-71
2022/09/07 01:01:39;;;;;;;16.05;9.30;;;18.30;99.90;;;;;;5049519;28;20492;-70
2022/09/07 01:04:06;;;;;;;16.35;9.20;;;18.40;99.90;;;;;;5048956;28;20045;-70
2022/09/07 01:06:34;;;;;;;12.40;9.50;;;18.30;99.90;;;;;;5050108;28;20404;-70
2022/09/07 01:09:05;;;;;;;13.73;9.13;;;18.30;99.90;;;;;;5048146;28;20570;-71
2022/09/07 01:11:33;;;;;;;12.45;9.85;;;18.20;99.90;;;;;;5050067;28;20070;-70
2022/09/07 01:14:01;;;;;;;14.82;9.18;;;18.20;99.90;;;;;;5045285;28;20489;-70
2022/09/07 01:16:50;;;;;;;15.05;9.60;;;18.20;99.90;;;;;;5048011;28;20471;-70
2022/09/07 01:19:53;;;;;;;15.35;10.13;;;18.10;99.90;;;;;;5048678;28;20088;-68
2022/09/07 01:22:39;;;;;;;14.07;10.38;;;18.10;99.90;;;;;;5049846;28;20045;-68
2022/09/07 01:25:24;;;;;;;12.18;10.43;;;18.00;99.90;;;;;;5049531;28;20330;-68
2022/09/07 01:28:20;;;;;;;17.17;10.73;;;18.00;99.90;;;;;;5050209;28;20045;-69
2022/09/07 01:31:47;;;;;;;17.55;10.25;;;17.90;99.90;;;;;;5046674;28;20045;-68
2022/09/07 01:34:20;;;;;;;18.48;11.27;;;17.90;99.90;;;;;;5046123;28;20187;-68
2022/09/07 01:37:10;;;;;;;16.08;10.30;;;17.90;99.90;;;;;;5045535;28;20062;-68
2022/09/07 01:39:48;;;;;;;19.30;10.70;;;17.90;99.90;;;;;;5045794;28;20052;-68
2022/09/07 01:42:20;;;;;;;14.27;10.33;;;17.90;99.90;;;;;;5048410;28;20507;-68
2022/09/07 01:44:53;;;;;;;16.55;11.38;;;17.90;99.90;;;;;;5051469;28;20654;-69
2022/09/07 01:47:40;;;;;;;13.18;11.40;;;17.90;99.90;;;;;;5050968;28;20037;-67
2022/09/07 01:50:08;;;;;;;16.50;11.95;;;17.90;99.90;;;;;;5047088;28;20076;-68
2022/09/07 01:52:43;;;;;;;13.95;12.30;;;17.90;99.90;;;;;;5050404;28;20040;-68
2022/09/07 01:55:20;;;;;;;14.80;11.07;;;17.80;99.90;;;;;;5051557;28;20049;-69
2022/09/07 01:58:01;;;;;;;17.63;10.65;;;17.80;99.90;;;;;;5049679;28;20495;-68
2022/09/07 02:00:32;;;;;;;19.77;12.02;;;17.80;99.90;;;;;;5049428;28;20049;-68
2022/09/07 02:03:14;;;;;;;21.35;12.57;;;17.80;99.90;;;;;;5045669;28;20575;-68
2022/09/07 02:05:57;;;;;;;17.58;11.80;;;17.90;99.90;;;;;;5046762;28;20033;-68
2022/09/07 02:08:30;;;;;;;22.08;13.63;;;17.80;99.90;;;;;;5043825;28;20048;-68
2022/09/07 02:11:18;;;;;;;22.27;11.90;;;17.80;99.90;;;;;;5051051;28;20141;-68
2022/09/07 02:14:12;;;;;;;20.65;11.77;;;17.80;99.90;;;;;;5038801;28;20131;-68
2022/09/07 02:16:47;;;;;;;17.38;12.23;;;17.90;99.90;;;;;;5041759;28;20048;-68
2022/09/07 02:19:15;;;;;;;23.55;12.82;;;17.90;99.90;;;;;;5045684;28;20116;-68
2022/09/07 02:21:45;;;;;;;22.98;12.52;;;17.80;99.90;;;;;;5049643;28;20119;-68
2022/09/07 02:24:16;;;;;;;15.82;10.02;;;17.80;99.90;;;;;;5048881;28;20041;-67
2022/09/07 02:26:48;;;;;;;17.90;10.30;;;17.80;99.90;;;;;;5047336;28;20040;-67
2022/09/07 02:29:13;;;;;;;18.90;12.10;;;17.80;99.90;;;;;;5058960;28;20093;-67
2022/09/07 02:31:40;;;;;;;21.17;12.70;;;17.70;99.90;;;;;;5040826;28;20120;-67
2022/09/07 02:34:06;;;;;;;18.55;11.85;;;17.60;99.90;;;;;;5045708;28;20059;-67
2022/09/07 02:36:44;;;;;;;18.25;13.43;;;17.60;99.90;;;;;;5048190;28;20403;-67
2022/09/07 02:39:10;;;;;;;;;;;17.50;99.90;;;;;;5047286;28;20041;-67
2022/09/07 02:41:41;;;;;;;13.32;8.77;;;17.50;99.90;;;;;;5050753;28;20407;-67
2022/09/07 02:44:15;;;;;;;9.93;8.15;;;17.50;99.90;;;;;;5047279;28;20087;-66
2022/09/07 02:47:11;;;;;;;11.48;8.65;;;17.50;99.90;;;;;;5044798;28;20099;-67
2022/09/07 02:50:08;;;;;;;10.90;8.70;;;17.50;99.90;;;;;;5050091;28;20033;-68
2022/09/07 02:53:04;;;;;;;13.27;9.27;;;17.50;99.90;;;;;;5043491;28;20418;-68
2022/09/07 02:55:49;;;;;;;11.80;9.27;;;17.40;99.90;;;;;;5049871;28;20056;-67
2022/09/07 02:58:56;;;;;;;11.80;8.63;;;17.30;99.90;;;;;;5049940;28;20045;-67
2022/09/07 03:01:39;;;;;;;10.85;8.32;;;17.30;99.90;;;;;;5004079;28;20052;-67
2022/09/07 03:04:17;;;;;;;12.85;8.75;;;17.30;99.90;;;;;;5043505;28;20127;-67
2022/09/07 03:06:49;;;;;;;10.65;8.85;;;17.30;99.90;;;;;;5044466;28;20041;-67
2022/09/07 03:09:19;;;;;;;12.88;8.55;;;17.20;99.90;;;;;;5050170;28;20048;-68
2022/09/07 03:11:46;;;;;;;11.63;8.43;;;17.20;99.90;;;;;;5043284;28;20041;-68
2022/09/07 03:14:14;;;;;;;10.13;8.18;;;17.10;99.90;;;;;;5047901;28;20069;-68
2022/09/07 03:16:39;;;;;;;11.57;8.85;;;17.20;99.90;;;;;;5046143;28;20037;-67
2022/09/07 03:19:05;;;;;;;12.45;9.60;;;17.10;99.90;;;;;;5045382;28;20350;-68
2022/09/07 03:21:31;;;;;;;11.30;8.07;;;17.10;99.90;;;;;;5047059;28;20089;-67
2022/09/07 03:23:56;;;;;;;8.95;7.20;;;17.00;99.90;;;;;;5050287;28;20067;-68
2022/09/07 03:26:24;;;;;;;11.18;8.88;;;17.20;99.90;;;;;;5047694;28;20408;-68
2022/09/07 03:28:50;;;;;;;16.52;9.70;;;17.10;99.90;;;;;;5047151;28;20132;-68
2022/09/07 03:31:16;;;;;;;13.85;9.73;;;17.10;99.90;;;;;;5045693;28;20136;-67
2022/09/07 03:33:41;;;;;;;10.13;6.80;;;17.10;99.90;;;;;;5048342;28;20144;-69
2022/09/07 03:36:07;;;;;;;8.27;6.30;;;17.10;99.90;;;;;;5046089;28;20055;-69
2022/09/07 03:38:33;;;;;;;9.55;6.55;;;17.20;99.90;;;;;;5046871;28;20374;-67
2022/09/07 03:41:00;;;;;;;11.75;7.13;;;17.20;99.90;;;;;;5048026;28;20048;-67
2022/09/07 03:43:27;;;;;;;9.18;6.50;;;17.20;99.90;;;;;;5047379;28;20056;-67
2022/09/07 03:46:04;;;;;;;9.18;6.53;;;17.10;99.90;;;;;;5047096;28;20124;-67
2022/09/07 03:48:31;;;;;;;9.57;6.88;;;17.10;99.90;;;;;;5029818;28;20053;-67
2022/09/07 03:50:59;;;;;;;11.63;8.45;;;17.00;99.90;;;;;;5044669;28;20051;-67
2022/09/07 03:53:25;;;;;;;12.05;8.00;;;17.00;99.90;;;;;;5046645;28;20037;-67
2022/09/07 03:56:08;;;;;;;10.63;8.10;;;17.00;99.90;;;;;;5046090;28;20036;-67
2022/09/07 03:58:34;;;;;;;10.35;8.27;;;17.00;99.90;;;;;;5046894;28;20132;-67
2022/09/07 04:01:09;;;;;;;11.02;8.60;;;17.00;99.90;;;;;;5045563;28;20041;-67
2022/09/07 04:03:35;;;;;;;9.75;8.27;;;17.00;99.90;;;;;;5043608;28;20061;-66
2022/09/07 04:06:02;;;;;;;14.73;9.45;;;16.90;99.90;;;;;;5046749;28;20131;-67
2022/09/07 04:08:30;;;;;;;11.07;8.02;;;16.90;99.90;;;;;;5046792;28;20041;-66
2022/09/07 04:10:56;;;;;;;;;;;16.90;99.90;;;;;;5048903;28;20033;-66
2022/09/07 04:13:22;;;;;;;9.75;7.32;;;16.90;99.90;;;;;;5046681;28;19924;-67
2022/09/07 04:15:48;;;;;;;10.88;8.05;;;16.90;99.90;;;;;;5043493;28;20037;-67
2022/09/07 04:18:14;;;;;;;11.93;9.65;;;16.90;99.90;;;;;;5041495;28;20393;-66
2022/09/07 04:20:39;;;;;;;12.48;9.60;;;16.80;99.90;;;;;;5043906;28;20485;-66
2022/09/07 04:23:05;;;;;;;11.88;10.07;;;16.80;99.90;;;;;;5042864;28;20680;-66
2022/09/07 04:25:31;;;;;;;14.40;9.88;;;16.90;99.90;;;;;;5047333;28;20033;-66
2022/09/07 04:27:57;;;;;;;12.63;10.80;;;16.80;99.90;;;;;;5044308;28;20499;-66
2022/09/07 04:30:23;;;;;;;14.05;9.48;;;16.80;99.90;;;;;;5043170;28;20060;-66
2022/09/07 04:32:48;;;;;;;16.13;11.48;;;16.70;99.90;;;;;;5043920;28;20197;-66
2022/09/07 04:35:14;;;;;;;14.68;10.45;;;16.70;99.90;;;;;;5043674;28;20068;-66
2022/09/07 04:37:40;;;;;;;13.63;10.70;;;16.70;99.90;;;;;;5045781;28;20068;-67
2022/09/07 04:40:06;;;;;;;13.48;10.05;;;16.70;99.90;;;;;;5044870;28;20518;-68
2022/09/07 04:42:32;;;;;;;13.65;11.43;;;16.80;99.90;;;;;;5047361;28;20041;-67
2022/09/07 04:44:58;;;;;;;14.77;11.65;;;16.80;99.90;;;;;;5047715;28;20040;-66
2022/09/07 04:47:24;;;;;;;12.05;9.88;;;16.80;99.90;;;;;;5044326;28;20049;-67
2022/09/07 04:49:50;;;;;;;16.17;11.98;;;16.80;99.90;;;;;;5046133;28;20400;-67
2022/09/07 04:52:16;;;;;;;14.18;11.45;;;16.80;99.90;;;;;;5045631;28;20045;-67
2022/09/07 04:54:42;;;;;;;18.08;11.50;;;16.90;99.90;;;;;;5043853;28;20079;-67
2022/09/07 04:57:10;;;;;;;16.20;12.55;;;16.80;99.90;;;;;;5047604;28;20392;-66
2022/09/07 04:59:36;;;;;;;18.00;12.15;;;16.80;99.90;;;;;;5048022;28;20048;-67
2022/09/07 05:02:02;;;;;;;16.50;12.45;;;16.80;99.90;;;;;;5041514;28;20132;-66
2022/09/07 05:04:27;;;;;;;17.67;14.77;;;16.80;99.90;;;;;;5039717;28;20089;-66
2022/09/07 05:06:53;;;;;;;19.25;14.57;;;16.80;99.90;;;;;;5045844;28;20045;-67
2022/09/07 05:09:19;;;;;;;17.85;15.63;;;16.80;99.90;;;;;;5046346;28;20037;-66
2022/09/07 05:11:45;;;;;;;20.65;14.73;;;16.70;99.90;;;;;;5048127;28;20051;-67
2022/09/07 05:14:10;;;;;;;19.90;17.33;;;16.70;99.90;;;;;;5045699;28;20033;-66
2022/09/07 05:16:36;;;;;;;24.20;17.55;;;16.70;99.90;;;;;;5049194;28;20123;-66
2022/09/07 05:19:04;;;;;;;23.33;19.23;;;16.70;99.90;;;;;;5051243;28;20103;-66
2022/09/07 05:21:32;;;;;;;23.65;17.60;;;16.70;99.90;;;;;;5046832;28;20032;-66
2022/09/07 05:23:58;;;;;;;;;;;16.70;99.90;;;;;;5042570;28;20725;-66
2022/09/07 05:26:27;;;;;;;29.05;21.08;;;16.70;99.90;;;;;;5053313;28;19924;-65
2022/09/07 05:28:53;;;;;;;31.38;22.40;;;16.70;99.90;;;;;;5047573;28;20116;-65
2022/09/07 05:31:21;;;;;;;24.33;20.95;;;16.80;99.90;;;;;;5044668;28;20044;-65
2022/09/07 05:33:54;;;;;;;28.45;20.60;;;16.80;99.90;;;;;;5051315;28;20060;-65
2022/09/07 05:36:21;;;;;;;28.02;21.67;;;16.80;99.90;;;;;;5051953;28;20107;-65
2022/09/07 05:38:46;;;;;;;24.60;19.83;;;16.80;99.90;;;;;;5050298;28;20056;-66
2022/09/07 05:41:19;;;;;;;25.95;21.80;;;16.80;99.90;;;;;;5050807;28;20041;-65
2022/09/07 05:43:45;;;;;;;30.50;21.40;;;16.80;99.90;;;;;;5051575;28;20049;-65
2022/09/07 05:46:12;;;;;;;26.38;21.15;;;16.80;99.90;;;;;;5052260;28;20041;-65
2022/09/07 05:48:38;;;;;;;36.85;23.92;;;16.90;99.90;;;;;;5052265;28;20117;-65
2022/09/07 05:51:05;;;;;;;30.05;23.17;;;16.80;99.90;;;;;;5052024;28;20087;-66
2022/09/07 05:53:34;;;;;;;24.83;20.90;;;16.90;99.90;;;;;;5051670;28;20257;-65
2022/09/07 05:56:01;;;;;;;31.13;23.55;;;16.90;99.90;;;;;;5023926;28;20065;-66
2022/09/07 05:58:27;;;;;;;24.80;20.42;;;16.90;99.90;;;;;;5044747;28;20033;-65
2022/09/07 06:01:00;;;;;;;25.92;22.13;;;16.90;99.90;;;;;;5042919;28;20064;-65
2022/09/07 06:03:26;;;;;;;36.92;24.52;;;16.90;99.90;;;;;;5047424;28;20053;-67
2022/09/07 06:06:03;;;;;;;37.88;24.50;;;16.90;99.90;;;;;;5032291;28;20067;-66
2022/09/07 06:08:30;;;;;;;34.25;25.30;;;16.90;99.90;;;;;;5035851;28;20041;-66
2022/09/07 06:10:55;;;;;;;34.05;24.50;;;16.90;99.90;;;;;;5034915;28;20065;-66
2022/09/07 06:13:21;;;;;;;30.85;24.63;;;17.00;99.90;;;;;;5036340;28;20436;-66
2022/09/07 06:15:47;;;;;;;29.42;23.67;;;17.00;99.90;;;;;;5032361;28;20051;-68
2022/09/07 06:18:13;;;;;;;33.47;24.48;;;17.00;99.90;;;;;;5039367;28;20080;-66
2022/09/07 06:20:38;;;;;;;29.83;22.85;;;17.00;99.90;;;;;;5026086;28;20033;-67
2022/09/07 06:23:04;;;;;;;32.28;25.00;;;17.10;99.90;;;;;;5031187;28;20084;-67
2022/09/07 06:25:29;;;;;;;29.05;22.83;;;17.10;99.90;;;;;;5035472;28;20060;-67
2022/09/07 06:27:55;;;;;;;30.90;23.73;;;17.10;99.90;;;;;;5034971;28;20181;-66
2022/09/07 06:30:21;;;;;;;31.42;24.80;;;17.20;99.90;;;;;;5035208;28;20037;-66
2022/09/07 06:32:47;;;;;;;30.80;23.92;;;17.20;99.90;;;;;;5037042;28;20057;-68
2022/09/07 06:35:13;;;;;;;30.40;24.17;;;17.10;99.90;;;;;;5035215;28;20048;-68
2022/09/07 06:37:40;;;;;;;32.75;24.92;;;17.20;99.90;;;;;;5037713;28;20094;-69
2022/09/07 06:40:06;;;;;;;32.97;24.67;;;17.20;99.90;;;;;;5035172;28;20419;-69
2022/09/07 06:42:32;;;;;;;28.95;25.10;;;17.20;99.90;;;;;;5035405;28;20070;-69
2022/09/07 06:44:58;;;;;;;36.47;27.48;;;17.20;99.90;;;;;;5039267;28;20041;-69
2022/09/07 06:47:23;;;;;;;35.10;25.77;;;17.30;99.90;;;;;;5031143;28;20049;-69
2022/09/07 06:49:49;;;;;;;28.73;23.98;;;17.30;99.90;;;;;;5033341;28;20056;-69
2022/09/07 06:52:15;;;;;;;30.77;23.67;;;17.30;99.90;;;;;;5036211;28;20118;-69
2022/09/07 06:54:41;;;;;;;29.40;24.42;;;17.30;99.90;;;;;;5033616;28;20404;-69
2022/09/07 06:57:07;;;;;;;29.38;24.10;;;17.20;99.90;;;;;;5033080;28;20076;-69
2022/09/07 06:59:34;;;;;;;32.97;25.38;;;17.20;99.90;;;;;;5031747;28;20388;-69
2022/09/07 07:02:01;;;;;;;42.33;25.67;;;17.20;99.90;;;;;;5035320;28;20045;-69
2022/09/07 07:04:27;;;;;;;33.22;25.48;;;17.20;99.90;;;;;;5046953;28;20064;-70
2022/09/07 07:06:53;;;;;;;40.17;28.85;;;17.20;99.90;;;;;;5034525;28;20416;-70
2022/09/07 07:09:18;;;;;;;36.90;28.02;;;17.20;99.90;;;;;;5033511;28;20507;-70
2022/09/07 07:11:46;;;;;;;40.45;28.70;;;17.20;99.90;;;;;;5032141;28;20047;-68
2022/09/07 07:14:16;;;;;;;42.53;31.08;;;17.30;99.90;;;;;;5036526;28;21935;-68
2022/09/07 07:16:42;;;;;;;39.65;31.73;;;17.30;99.90;;;;;;5031443;28;20049;-68
2022/09/07 07:19:09;;;;;;;39.42;30.70;;;17.40;99.90;;;;;;5033068;28;20035;-70
2022/09/07 07:21:35;;;;;;;40.53;31.42;;;17.40;99.90;;;;;;5033085;28;20091;-70
2022/09/07 07:24:00;;;;;;;41.30;32.13;;;17.30;99.90;;;;;;5034057;28;20041;-69
2022/09/07 07:26:26;;;;;;;35.25;28.42;;;17.50;99.90;;;;;;5034629;28;20044;-70
2022/09/07 07:28:54;;;;;;;38.25;27.10;;;17.50;99.90;;;;;;5032561;28;20045;-69
2022/09/07 07:31:24;;;;;;;36.10;27.45;;;17.40;99.90;;;;;;5033422;28;20041;-70
2022/09/07 07:34:30;;;;;;;41.55;28.23;;;17.40;99.90;;;;;;5030932;28;20070;-69
2022/09/07 07:36:55;;;;;;;44.03;27.63;;;17.40;99.90;;;;;;5030066;28;20056;-70
2022/09/07 07:39:21;;;;;;;32.85;25.30;;;17.50;99.90;;;;;;5035309;28;20098;-70
2022/09/07 07:41:47;;;;;;;39.67;25.35;;;17.50;99.90;;;;;;5038757;28;20063;-70
2022/09/07 07:44:12;;;;;;;27.45;23.60;;;17.50;99.90;;;;;;5035460;28;20385;-70
2022/09/07 07:46:38;;;;;;;30.67;24.40;;;17.50;99.90;;;;;;5035754;28;20130;-69
2022/09/07 07:49:04;;;;;;;31.45;23.60;;;17.50;99.90;;;;;;5034657;28;20048;-68
2022/09/07 07:51:29;;;;;;;32.83;23.83;;;17.50;99.90;;;;;;5035215;28;20165;-70
2022/09/07 07:53:55;;;;;;;32.65;23.80;;;17.60;99.90;;;;;;5034947;28;20056;-70
2022/09/07 07:56:21;;;;;;;36.38;23.67;;;17.60;99.90;;;;;;5036433;28;20045;-69
2022/09/07 07:58:47;;;;;;;32.72;24.73;;;17.60;99.90;;;;;;5016977;28;20139;-70
2022/09/07 08:01:16;;;;;;;32.17;24.08;;;17.60;99.90;;;;;;5034134;28;20052;-70
2022/09/07 08:03:43;;;;;;;30.52;24.45;;;17.70;99.90;;;;;;5033918;28;20160;-70
2022/09/07 08:06:11;;;;;;;40.35;26.70;;;17.70;99.90;;;;;;5034508;28;20807;-70
2022/09/07 08:08:37;;;;;;;32.70;26.10;;;17.70;99.90;;;;;;5035417;28;20037;-70
2022/09/07 08:11:10;;;;;;;34.08;25.77;;;17.80;99.90;;;;;;5033006;28;20052;-69
2022/09/07 08:13:41;;;;;;;37.40;26.60;;;17.80;99.90;;;;;;5036582;28;20045;-70
2022/09/07 08:16:08;;;;;;;30.00;25.25;;;17.90;99.90;;;;;;5034318;28;20092;-69
2022/09/07 08:18:35;;;;;;;41.08;26.75;;;18.00;99.90;;;;;;5034203;28;20044;-69
2022/09/07 08:21:03;;;;;;;37.97;25.88;;;18.10;99.90;;;;;;5033628;28;20056;-70
2022/09/07 08:23:30;;;;;;;;;;;18.10;99.90;;;;;;5037103;28;20048;-69
2022/09/07 08:25:59;;;;;;;32.03;26.40;;;18.10;99.90;;;;;;5034299;28;19929;-69
2022/09/07 08:28:27;;;;;;;35.00;25.88;;;18.20;99.90;;;;;;5034660;28;20072;-70
2022/09/07 08:30:53;;;;;;;34.58;25.30;;;18.20;99.90;;;;;;5034603;28;20049;-70
2022/09/07 08:33:19;;;;;;;32.63;24.58;;;18.30;99.90;;;;;;5027531;28;20131;-70
2022/09/07 08:35:56;;;;;;;30.30;25.05;;;18.30;99.90;;;;;;5034375;28;20125;-71
2022/09/07 08:38:22;;;;;;;32.72;25.40;;;18.40;99.90;;;;;;5036860;28;20370;-71
2022/09/07 08:40:48;;;;;;;32.80;26.25;;;18.50;99.90;;;;;;5033127;28;20049;-71
2022/09/07 08:43:30;;;;;;;30.73;24.23;;;18.60;99.90;;;;;;5035839;28;20110;-72
2022/09/07 08:46:07;;;;;;;31.48;24.02;;;18.70;99.90;;;;;;5032766;28;20045;-71
2022/09/07 08:48:34;;;;;;;32.20;24.92;;;18.70;99.90;;;;;;5037776;28;20047;-71
2022/09/07 08:51:09;;;;;;;31.92;23.77;;;18.70;99.90;;;;;;5038823;28;20407;-70
2022/09/07 08:53:41;;;;;;;28.10;24.42;;;18.80;99.90;;;;;;5037081;28;20049;-71
2022/09/07 08:56:14;;;;;;;27.75;24.38;;;18.80;99.90;;;;;;5038772;28;20052;-69
2022/09/07 08:58:50;;;;;;;34.20;26.23;;;18.70;99.90;;;;;;5037288;28;20613;-69
2022/09/07 09:01:18;;;;;;;31.10;25.50;;;18.80;99.90;;;;;;5040966;28;20051;-69
2022/09/07 09:03:45;;;;;;;33.05;24.05;;;18.70;99.90;;;;;;5036691;28;20061;-70
2022/09/07 09:06:26;;;;;;;30.65;23.88;;;18.70;99.90;;;;;;5037495;28;20140;-70
2022/09/07 09:09:12;;;;;;;30.35;25.35;;;18.70;99.90;;;;;;5037939;28;20468;-70
2022/09/07 09:12:06;;;;;;;31.77;24.00;;;18.70;99.90;;;;;;5037668;28;20500;-70
2022/09/07 09:15:03;;;;;;;31.55;25.65;;;18.80;99.90;;;;;;5038383;28;21688;-70
2022/09/07 09:17:35;;;;;;;30.40;26.83;;;18.80;99.90;;;;;;5038170;28;20048;-70
2022/09/07 09:20:20;;;;;;;30.13;24.58;;;19.00;99.90;;;;;;5039586;28;20056;-70
2022/09/07 09:22:45;;;;;;;30.55;25.15;;;19.20;99.90;;;;;;5037830;28;20044;-70
2022/09/07 09:25:21;;;;;;;30.20;22.52;;;19.40;99.90;;;;;;5039961;28;20096;-71
2022/09/07 09:27:48;;;;;;;30.85;22.05;;;19.60;99.90;;;;;;5036046;28;20049;-71
2022/09/07 09:30:21;;;;;;;25.88;21.92;;;20.00;99.90;;;;;;5020851;28;20041;-71
2022/09/07 09:32:51;;;;;;;29.75;20.83;;;20.20;99.90;;;;;;5039107;28;20463;-71
2022/09/07 09:35:31;;;;;;;40.35;23.00;;;20.40;99.90;;;;;;5038915;28;20049;-71
2022/09/07 09:37:57;;;;;;;22.80;19.88;;;20.60;99.90;;;;;;5036086;28;20045;-71
2022/09/07 09:40:29;;;;;;;28.45;19.98;;;20.70;99.90;;;;;;5038078;28;20040;-72
2022/09/07 09:43:04;;;;;;;22.80;19.48;;;20.70;99.90;;;;;;5038824;28;20123;-71
2022/09/07 09:45:33;;;;;;;21.70;18.77;;;20.80;99.90;;;;;;5035520;28;20055;-70
2022/09/07 09:48:00;;;;;;;20.02;17.70;;;20.90;99.90;;;;;;5040142;28;20072;-69
2022/09/07 09:50:35;;;;;;;21.17;16.75;;;20.90;99.90;;;;;;5038678;28;20059;-70
2022/09/07 09:53:03;;;;;;;21.38;18.25;;;20.90;99.90;;;;;;5034285;28;20051;-71
2022/09/07 09:55:35;;;;;;;23.83;18.77;;;20.80;99.90;;;;;;5038834;28;20451;-71
2022/09/07 09:58:06;;;;;;;19.42;17.33;;;20.90;99.90;;;;;;5035401;28;20048;-71
2022/09/07 10:00:33;;;;;;;21.30;17.42;;;21.00;99.90;;;;;;5039534;28;20033;-71
2022/09/07 10:03:01;;;;;;;22.55;16.45;;;21.20;99.90;;;;;;5039104;28;20060;-72
2022/09/07 10:05:35;;;;;;;21.52;16.40;;;21.40;99.90;;;;;;5037570;28;20045;-70
2022/09/07 10:08:01;;;;;;;23.35;16.48;;;21.40;99.90;;;;;;5039615;28;20041;-70
2022/09/07 10:10:28;;;;;;;21.05;15.70;;;21.50;99.90;;;;;;5036040;28;20515;-70
2022/09/07 10:12:55;;;;;;;19.15;15.60;;;21.50;99.90;;;;;;5036832;28;20044;-71
2022/09/07 10:15:35;;;;;;;17.65;13.95;;;21.60;99.90;;;;;;5037113;28;20041;-72
2022/09/07 10:18:04;;;;;;;20.50;13.95;;;21.50;99.90;;;;;;5042493;28;20064;-69
2022/09/07 10:20:37;;;;;;;16.17;14.00;;;21.50;99.90;;;;;;5044695;28;20139;-70
2022/09/07 10:23:05;;;;;;;18.70;13.48;;;21.30;99.90;;;;;;5035870;28;20044;-71
2022/09/07 10:25:32;;;;;;;;;;;21.20;99.90;;;;;;5039705;28;20049;-71
2022/09/07 10:28:10;;;;;;;14.80;13.02;;;21.30;99.90;;;;;;5036519;28;19920;-72
2022/09/07 10:31:02;;;;;;;14.40;12.57;;;21.40;99.90;;;;;;5037152;28;20144;-71
2022/09/07 10:33:27;;;;;;;14.75;13.20;;;21.50;99.90;;;;;;5046224;28;20092;-72
2022/09/07 10:36:38;;;;;;;17.25;12.98;;;21.50;99.90;;;;;;5034740;28;20571;-71
2022/09/07 10:39:15;;;;;;;14.38;11.40;;;21.70;99.90;;;;;;5011269;28;20049;-71
2022/09/07 10:42:05;;;;;;;12.23;10.10;;;22.40;99.90;;;;;;5039857;28;20072;-71
2022/09/07 10:45:04;;;;;;;12.65;9.68;;;22.70;99.90;;;;;;5041970;28;20504;-71
2022/09/07 10:47:42;;;;;;;13.02;9.38;;;22.60;99.90;;;;;;5043064;28;20045;-71
2022/09/07 10:50:22;;;;;;;10.63;8.50;;;22.60;99.90;;;;;;5046482;28;20037;-71
2022/09/07 10:53:18;;;;;;;9.63;8.23;;;22.50;99.90;;;;;;5051503;28;20048;-71
2022/09/07 10:55:52;;;;;;;10.10;8.50;;;22.30;99.90;;;;;;5050508;28;20045;-72
2022/09/07 10:58:48;;;;;;;10.60;7.93;;;22.10;99.90;;;;;;5046422;28;20471;-71
2022/09/07 11:01:37;;;;;;;10.73;6.80;;;22.30;99.90;;;;;;5046970;28;20522;-71
2022/09/07 11:04:09;;;;;;;10.38;6.43;;;22.80;99.90;;;;;;5049426;28;20095;-71
2022/09/07 11:06:40;;;;;;;9.48;6.07;;;23.30;99.90;;;;;;5047487;28;20500;-72
2022/09/07 11:09:34;;;;;;;7.30;6.43;;;23.40;99.90;;;;;;5051414;28;20749;-71
2022/09/07 11:12:07;;;;;;;9.05;6.03;;;23.30;99.90;;;;;;5048649;28;20045;-70
2022/09/07 11:14:44;;;;;;;9.82;6.00;;;23.40;99.90;;;;;;5049296;28;20033;-70
2022/09/07 11:17:25;;;;;;;6.95;5.43;;;24.00;99.90;;;;;;5062481;28;20042;-70
2022/09/07 11:20:18;;;;;;;6.32;5.25;;;24.50;99.90;;;;;;5049259;28;20041;-70
2022/09/07 11:23:03;;;;;;;7.60;5.15;;;24.40;99.90;;;;;;5038288;28;20456;-70
2022/09/07 11:25:52;;;;;;;5.68;4.70;;;24.20;99.90;;;;;;5044616;28;20127;-70
2022/09/07 11:28:26;;;;;;;7.65;5.13;;;24.00;99.90;;;;;;5049887;28;20387;-70
2022/09/07 11:31:00;;;;;;;6.20;4.95;;;23.90;99.90;;;;;;5048548;28;20345;-70
2022/09/07 11:33:44;;;;;;;6.25;5.32;;;23.90;99.90;;;;;;5032963;28;20037;-70
2022/09/07 11:36:19;;;;;;;6.70;5.13;;;24.10;99.90;;;;;;5043902;28;20044;-71
2022/09/07 11:39:06;;;;;;;8.30;5.25;;;24.40;99.90;;;;;;5049023;28;20113;-70
2022/09/07 11:41:45;;;;;;;11.02;5.32;;;24.70;99.90;;;;;;5045277;28;20546;-70
2022/09/07 11:44:17;;;;;;;6.25;4.95;;;24.70;99.90;;;;;;5049316;28;20037;-70
2022/09/07 11:46:50;;;;;;;8.88;4.93;;;25.10;99.90;;;;;;5043670;28;20405;-70
2022/09/07 11:49:24;;;;;;;7.55;4.47;;;25.40;99.90;;;;;;5048377;28;20049;-70
2022/09/07 11:52:31;;;;;;;11.23;4.07;;;25.30;99.90;;;;;;5043961;28;20319;-70
2022/09/07 11:55:03;;;;;;;6.85;3.95;;;25.50;99.90;;;;;;5036421;28;20037;-70
2022/09/07 11:57:56;;;;;;;8.68;3.95;;;26.10;99.90;;;;;;5044570;28;20041;-70
2022/09/07 12:00:29;;;;;;;6.03;4.18;;;26.50;99.90;;;;;;5033455;28;20132;-70
2022/09/07 12:03:30;;;;;;;5.78;3.40;;;26.60;99.90;;;;;;5046714;28;20053;-70
2022/09/07 12:06:37;;;;;;;17.30;4.40;;;26.80;99.90;;;;;;5043262;28;20041;-68
2022/09/07 12:09:40;;;;;;;6.10;3.10;;;27.00;98.40;;;;;;5039120;28;20052;-68
2022/09/07 12:12:37;;;;;;;4.97;2.97;;;26.70;97.90;;;;;;5042082;28;20041;-69
2022/09/07 12:15:12;;;;;;;5.75;2.92;;;26.30;98.90;;;;;;5049444;28;20045;-68
2022/09/07 12:17:48;;;;;;;5.18;2.53;;;26.00;99.10;;;;;;5051533;28;20123;-68
2022/09/07 12:20:15;;;;;;;6.03;2.53;;;25.80;99.90;;;;;;5047616;28;20081;-69
2022/09/07 12:22:58;;;;;;;;;;;25.70;99.90;;;;;;5051016;28;20040;-68
2022/09/07 12:25:24;;;;;;;3.20;1.90;;;25.70;99.90;;;;;;5047610;28;20375;-67
2022/09/07 12:27:50;;;;;;;3.17;1.85;;;26.20;99.90;;;;;;5040202;28;20041;-69
2022/09/07 12:30:17;;;;;;;3.22;1.83;;;26.80;99.90;;;;;;5044148;28;20045;-69
2022/09/07 12:32:45;;;;;;;4.05;2.08;;;27.40;99.40;;;;;;5050540;28;20044;-69
2022/09/07 12:35:32;;;;;;;2.85;2.00;;;27.80;96.40;;;;;;5047186;28;20048;-70
2022/09/07 12:38:00;;;;;;;3.33;1.90;;;28.00;95.80;;;;;;5049637;28;20048;-70
2022/09/07 12:40:29;;;;;;;2.75;1.83;;;28.10;95.70;;;;;;5048469;28;20480;-70
2022/09/07 12:43:13;;;;;;;3.28;1.70;;;28.00;94.80;;;;;;5049830;28;20064;-70
2022/09/07 12:45:38;;;;;;;3.88;1.70;;;27.50;93.10;;;;;;5041582;28;20037;-70
2022/09/07 12:48:16;;;;;;;5.78;1.80;;;27.00;95.10;;;;;;5047040;28;20074;-68
2022/09/07 12:51:05;;;;;;;2.28;1.50;;;27.10;94.40;;;;;;5052122;28;20052;-68
2022/09/07 12:53:30;;;;;;;4.30;1.55;;;27.40;94.70;;;;;;5046930;28;20041;-68
2022/09/07 12:56:08;;;;;;;3.25;1.63;;;27.90;96.10;;;;;;5049865;28;20400;-69
2022/09/07 12:58:40;;;;;;;4.53;2.05;;;27.90;93.80;;;;;;5057936;28;20518;-69
2022/09/07 13:01:33;;;;;;;4.32;1.80;;;27.60;94.40;;;;;;5048564;28;20041;-70